createdAt,value
2022-10-09T00:01:13.988Z,10.60
2022-10-09T00:03:43.614Z,10.75
2022-10-09T00:06:14.947Z,10.45
2022-10-09T00:08:43.867Z,12.50
2022-10-09T00:11:13.974Z,8.68
2022-10-09T00:13:43.360Z,9.10
2022-10-09T00:16:14.466Z,11.75
2022-10-09T00:18:43.213Z,12.38
2022-10-09T00:21:19.060Z,12.40
2022-10-09T00:23:46.813Z,8.40
2022-10-09T00:26:14.554Z,8.95
2022-10-09T00:28:43.714Z,10.25
2022-10-09T00:31:12.758Z,11.65
2022-10-09T00:33:40.796Z,11.00
2022-10-09T00:36:10.811Z,9.45
2022-10-09T00:38:38.583Z,10.77
2022-10-09T00:41:06.667Z,10.45
2022-10-09T00:43:41.710Z,11.82
2022-10-09T00:46:19.976Z,11.57
2022-10-09T00:49:01.300Z,10.63
2022-10-09T00:51:30.758Z,11.38
2022-10-09T00:53:59.714Z,9.23
2022-10-09T00:56:27.775Z,12.38
2022-10-09T00:58:58.639Z,9.32
2022-10-09T01:01:27.849Z,11.00
2022-10-09T01:03:55.511Z,11.85
2022-10-09T01:06:31.478Z,15.48
2022-10-09T01:09:04.972Z,12.88
2022-10-09T01:11:40.566Z,16.55
2022-10-09T01:14:19.403Z,15.32
2022-10-09T01:16:57.817Z,14.48
2022-10-09T01:19:41.990Z,15.20
2022-10-09T01:22:20.906Z,14.32
2022-10-09T01:24:56.157Z,11.18
2022-10-09T01:27:27.163Z,11.68
2022-10-09T01:29:57.712Z,11.52
2022-10-09T01:32:30.632Z,10.48
2022-10-09T01:34:59.703Z,10.32
2022-10-09T01:37:29.647Z,12.10
2022-10-09T01:39:58.348Z,9.25
2022-10-09T01:42:29.734Z,10.80
2022-10-09T01:44:57.428Z,10.57
2022-10-09T01:47:25.495Z,9.35
2022-10-09T01:49:59.206Z,8.80
2022-10-09T01:52:46.313Z,10.60
2022-10-09T01:55:26.680Z,9.90
2022-10-09T01:58:01.327Z,8.30
2022-10-09T02:00:34.098Z,8.52
2022-10-09T02:03:03.635Z,7.95
2022-10-09T02:05:32.919Z,8.77
2022-10-09T02:08:01.034Z,8.88
2022-10-09T02:10:29.047Z,8.40
2022-10-09T02:13:00.645Z,8.50
2022-10-09T02:15:33.805Z,9.67
2022-10-09T02:18:06.180Z,8.73
2022-10-09T02:20:37.014Z,9.48
2022-10-09T02:23:08.511Z,9.32
2022-10-09T02:25:36.812Z,8.98
2022-10-09T02:28:08.024Z,8.90
2022-10-09T02:30:45.362Z,8.07
2022-10-09T02:33:13.043Z,8.95
2022-10-09T02:35:41.102Z,9.00
2022-10-09T02:38:08.691Z,9.63
2022-10-09T02:40:36.286Z,8.52
2022-10-09T02:43:03.972Z,9.23
2022-10-09T02:45:32.998Z,8.18
2022-10-09T02:48:00.625Z,8.85
2022-10-09T02:50:30.856Z,11.35
2022-10-09T02:52:58.486Z,10.25
2022-10-09T02:55:26.167Z,10.68
2022-10-09T02:57:53.766Z,11.52
2022-10-09T03:00:21.816Z,10.77
2022-10-09T03:02:51.299Z,10.77
2022-10-09T03:05:19.328Z,8.82
2022-10-09T03:07:51.360Z,11.15
2022-10-09T03:10:19.867Z,10.45
2022-10-09T03:12:48.485Z,7.70
2022-10-09T03:15:16.438Z,10.23
2022-10-09T03:17:44.146Z,9.20
2022-10-09T03:20:13.175Z,7.88
2022-10-09T03:22:40.887Z,12.75
2022-10-09T03:25:09.116Z,9.13
2022-10-09T03:27:36.803Z,7.28
2022-10-09T03:30:05.181Z,9.05
2022-10-09T03:32:33.109Z,8.27
2022-10-09T03:35:00.796Z,10.27
2022-10-09T03:37:29.875Z,8.45
2022-10-09T03:39:57.515Z,10.57
2022-10-09T03:42:25.465Z,9.13
2022-10-09T03:44:53.118Z,11.10
2022-10-09T03:47:20.842Z,9.73
2022-10-09T03:49:48.625Z,7.20
2022-10-09T03:52:16.266Z,8.85
2022-10-09T03:54:45.403Z,8.18
2022-10-09T03:57:13.217Z,7.75
2022-10-09T03:59:40.897Z,6.75
2022-10-09T04:02:08.644Z,6.60
2022-10-09T04:04:36.324Z,6.70
2022-10-09T04:07:04.039Z,8.63
2022-10-09T04:09:31.704Z,6.53
2022-10-09T04:12:00.760Z,6.10
2022-10-09T04:14:28.397Z,8.30
2022-10-09T04:16:56.063Z,8.80
2022-10-09T04:19:23.703Z,7.88
2022-10-09T04:21:51.416Z,7.45
2022-10-09T04:24:19.250Z,8.25
2022-10-09T04:26:46.892Z,8.13
2022-10-09T04:29:16.190Z,9.18
2022-10-09T04:31:43.890Z,10.85
2022-10-09T04:34:11.603Z,11.00
2022-10-09T04:36:39.254Z,10.30
2022-10-09T04:39:07.113Z,7.43
2022-10-09T04:41:38.096Z,8.30
2022-10-09T04:44:06.896Z,6.10
2022-10-09T04:46:35.949Z,7.28
2022-10-09T04:49:03.691Z,7.68
2022-10-09T04:51:31.684Z,9.38
2022-10-09T04:54:00.740Z,9.35
2022-10-09T04:56:28.831Z,7.53
2022-10-09T04:58:56.509Z,9.60
2022-10-09T05:01:26.721Z,7.35
2022-10-09T05:03:56.723Z,7.97
2022-10-09T05:06:25.282Z,8.82
2022-10-09T05:08:54.110Z,8.77
2022-10-09T05:11:23.546Z,9.02
2022-10-09T05:13:53.700Z,8.45
2022-10-09T05:16:23.180Z,9.05
2022-10-09T05:18:53.895Z,11.50
2022-10-09T05:21:23.755Z,9.13
2022-10-09T05:23:52.057Z,8.52
2022-10-09T05:26:22.145Z,10.90
2022-10-09T05:28:50.248Z,11.27
2022-10-09T05:31:21.152Z,11.27
2022-10-09T05:33:49.437Z,8.88
2022-10-09T05:36:18.026Z,10.95
2022-10-09T05:38:47.247Z,8.90
2022-10-09T05:41:16.654Z,9.00
2022-10-09T05:43:46.176Z,9.30
2022-10-09T05:46:15.252Z,8.18
2022-10-09T05:48:45.486Z,9.32
2022-10-09T05:51:14.620Z,7.45
2022-10-09T05:53:43.535Z,8.65
2022-10-09T05:56:14.987Z,10.00
2022-10-09T05:58:43.450Z,8.23
2022-10-09T06:01:11.748Z,9.25
2022-10-09T06:03:39.692Z,8.10
2022-10-09T06:06:09.425Z,9.30
2022-10-09T06:08:38.191Z,8.95
2022-10-09T06:11:10.705Z,7.90
2022-10-09T06:16:07.883Z,6.32
2022-10-09T06:18:35.634Z,7.43
2022-10-09T06:21:03.644Z,8.77
2022-10-09T06:23:32.095Z,9.15
2022-10-09T06:26:01.656Z,8.85
2022-10-09T06:28:29.560Z,8.20
2022-10-09T06:31:03.674Z,8.52
2022-10-09T06:33:33.121Z,7.93
2022-10-09T06:36:09.768Z,9.68
2022-10-09T06:38:38.677Z,7.78
2022-10-09T06:41:08.438Z,8.80
2022-10-09T06:43:36.435Z,7.60
2022-10-09T06:46:07.257Z,9.32
2022-10-09T06:48:36.640Z,10.90
2022-10-09T06:51:06.632Z,9.40
2022-10-09T06:53:35.512Z,7.30
2022-10-09T06:56:03.230Z,8.40
2022-10-09T06:58:34.119Z,9.60
2022-10-09T07:01:08.371Z,10.88
2022-10-09T07:03:36.626Z,8.95
2022-10-09T07:06:09.143Z,9.45
2022-10-09T07:11:12.485Z,8.88
2022-10-09T07:13:43.121Z,9.20
2022-10-09T07:16:12.559Z,10.23
2022-10-09T07:18:40.786Z,9.77
2022-10-09T07:21:10.108Z,10.55
2022-10-09T07:23:38.132Z,10.05
2022-10-09T07:26:12.094Z,13.60
2022-10-09T07:28:42.491Z,10.20
2022-10-09T07:31:12.804Z,8.95
2022-10-09T07:33:41.754Z,9.77
2022-10-09T07:36:10.850Z,9.63
2022-10-09T07:38:39.006Z,8.13
2022-10-09T07:41:08.641Z,7.75
2022-10-09T07:43:37.108Z,9.07
2022-10-09T07:46:07.012Z,27.08
2022-10-09T07:48:36.869Z,10.43
2022-10-09T07:51:09.605Z,9.40
2022-10-09T07:53:37.348Z,8.57
2022-10-09T07:56:05.838Z,9.07
2022-10-09T07:58:33.915Z,8.98
2022-10-09T08:01:06.003Z,8.20
2022-10-09T08:03:34.351Z,8.98
2022-10-09T08:06:03.616Z,8.48
2022-10-09T08:08:31.593Z,8.88
2022-10-09T08:10:59.318Z,10.27
2022-10-09T08:13:27.052Z,20.80
2022-10-09T08:15:54.787Z,9.15
2022-10-09T08:18:22.476Z,8.32
2022-10-09T08:20:58.582Z,8.13
2022-10-09T08:23:28.022Z,7.10
2022-10-09T08:25:56.134Z,7.95
2022-10-09T08:28:24.085Z,8.13
2022-10-09T08:30:52.011Z,7.93
2022-10-09T08:33:22.040Z,7.95
2022-10-09T08:35:50.096Z,8.00
2022-10-09T08:38:37.661Z,7.90
2022-10-09T08:41:10.421Z,6.93
2022-10-09T08:43:41.962Z,6.50
2022-10-09T08:46:20.979Z,12.23
2022-10-09T08:48:51.318Z,6.32
2022-10-09T08:51:24.344Z,6.20
2022-10-09T08:54:31.724Z,5.35
2022-10-09T08:57:06.131Z,4.72
2022-10-09T08:59:34.275Z,5.00
2022-10-09T09:02:16.730Z,4.90
2022-10-09T09:05:04.936Z,4.40
2022-10-09T09:07:45.946Z,4.10
2022-10-09T09:10:25.303Z,3.47
2022-10-09T09:13:03.101Z,3.97
2022-10-09T09:15:47.275Z,3.40
2022-10-09T09:18:46.056Z,3.63
2022-10-09T09:21:44.555Z,3.47
2022-10-09T09:24:50.057Z,3.40
2022-10-09T09:27:22.204Z,3.42
2022-10-09T09:29:57.476Z,3.40
2022-10-09T09:32:28.838Z,3.40
2022-10-09T09:35:06.470Z,3.30
2022-10-09T09:37:34.362Z,3.25
2022-10-09T09:40:35.387Z,3.25
2022-10-09T09:42:57.103Z,3.58
2022-10-09T09:45:27.822Z,3.05
2022-10-09T09:47:58.871Z,2.90
2022-10-09T09:50:48.551Z,2.80
2022-10-09T09:53:28.525Z,2.80
2022-10-09T09:55:57.392Z,2.72
2022-10-09T09:58:33.205Z,2.50
2022-10-09T10:01:04.327Z,2.95
2022-10-09T10:03:36.083Z,2.70
2022-10-09T10:06:04.339Z,2.50
2022-10-09T10:08:47.161Z,2.30
2022-10-09T10:11:19.270Z,2.60
2022-10-09T10:13:49.656Z,3.30
2022-10-09T10:16:24.949Z,2.72
2022-10-09T10:18:56.931Z,2.25
2022-10-09T10:21:25.437Z,2.30
2022-10-09T10:23:58.859Z,2.50
2022-10-09T10:26:37.238Z,2.47
2022-10-09T10:29:23.012Z,2.05
2022-10-09T10:32:00.793Z,2.20
2022-10-09T10:34:33.089Z,4.20
2022-10-09T10:37:11.057Z,6.55
2022-10-09T10:39:44.883Z,3.75
2022-10-09T10:42:20.596Z,3.22
2022-10-09T10:44:53.620Z,2.05
2022-10-09T10:47:28.410Z,8.63
2022-10-09T10:49:56.659Z,5.80
2022-10-09T10:52:42.046Z,3.33
2022-10-09T10:55:26.808Z,12.93
2022-10-09T10:58:13.702Z,4.82
2022-10-09T11:00:50.607Z,2.92
2022-10-09T11:03:35.198Z,4.50
2022-10-09T11:06:09.561Z,13.43
2022-10-09T11:08:52.780Z,9.90
2022-10-09T11:11:24.448Z,2.22
2022-10-09T11:14:00.685Z,5.38
2022-10-09T11:16:48.570Z,4.78
2022-10-09T11:19:49.496Z,8.45
2022-10-09T11:22:33.984Z,6.50
2022-10-09T11:25:13.947Z,3.47
2022-10-09T11:27:50.194Z,2.10
2022-10-09T11:30:19.855Z,3.08
2022-10-09T11:32:56.143Z,20.08
2022-10-09T11:35:26.548Z,4.13
2022-10-09T11:38:08.073Z,5.55
2022-10-09T11:40:40.637Z,3.60
2022-10-09T11:43:28.561Z,13.82
2022-10-09T11:46:03.021Z,2.83
2022-10-09T11:48:38.800Z,6.78
2022-10-09T11:51:20.292Z,6.70
2022-10-09T11:53:55.937Z,2.10
2022-10-09T11:56:25.988Z,4.60
2022-10-09T11:58:58.590Z,2.17
2022-10-09T12:01:32.873Z,2.00
2022-10-09T12:04:07.802Z,2.10
2022-10-09T12:06:50.611Z,2.00
2022-10-09T12:09:25.970Z,1.83
2022-10-09T12:11:59.595Z,1.80
2022-10-09T12:14:33.372Z,1.80
2022-10-09T12:17:01.641Z,1.77
2022-10-09T12:19:36.165Z,1.98
2022-10-09T12:22:08.872Z,1.80
2022-10-09T12:24:46.652Z,1.80
2022-10-09T12:27:21.658Z,1.63
2022-10-09T12:29:56.989Z,1.60
2022-10-09T12:32:29.308Z,1.70
2022-10-09T12:34:58.222Z,1.77
2022-10-09T12:37:36.589Z,1.70
2022-10-09T12:40:09.901Z,1.65
2022-10-09T12:42:37.894Z,1.90
2022-10-09T12:45:06.492Z,2.50
2022-10-09T12:47:36.339Z,2.10
2022-10-09T12:50:33.671Z,2.65
2022-10-09T12:53:07.022Z,4.70
2022-10-09T12:55:49.097Z,4.55
2022-10-09T12:58:31.220Z,3.92
2022-10-09T13:01:12.896Z,6.40
2022-10-09T13:03:48.375Z,5.57
2022-10-09T13:06:25.463Z,17.25
2022-10-09T13:09:05.323Z,13.05
2022-10-09T13:11:42.816Z,16.20
2022-10-09T13:14:30.965Z,7.00
2022-10-09T13:17:02.697Z,32.50
2022-10-09T13:19:38.333Z,5.07
2022-10-09T13:22:21.862Z,9.10
2022-10-09T13:24:54.288Z,3.40
2022-10-09T13:29:50.633Z,1.80
2022-10-09T13:32:21.001Z,4.38
2022-10-09T13:34:50.167Z,3.00
2022-10-09T13:37:20.330Z,1.80
2022-10-09T13:39:48.744Z,3.30
2022-10-09T13:42:29.814Z,2.88
2022-10-09T13:45:00.314Z,3.33
2022-10-09T13:47:29.785Z,3.28
2022-10-09T13:50:01.988Z,6.57
2022-10-09T13:52:30.139Z,3.72
2022-10-09T13:54:58.110Z,2.17
2022-10-09T13:57:32.692Z,12.25
2022-10-09T14:00:00.544Z,3.63
2022-10-09T14:02:32.285Z,2.95
2022-10-09T14:05:02.822Z,4.15
2022-10-09T14:07:32.101Z,8.82
2022-10-09T14:10:03.647Z,3.53
2022-10-09T14:12:35.826Z,7.40
2022-10-09T14:15:05.001Z,4.53
2022-10-09T14:17:34.769Z,3.03
2022-10-09T14:20:06.101Z,2.53
2022-10-09T14:22:33.898Z,12.73
2022-10-09T14:25:01.672Z,2.45
2022-10-09T14:27:30.938Z,1.55
2022-10-09T14:30:02.611Z,2.60
2022-10-09T14:32:30.672Z,4.90
2022-10-09T14:34:58.598Z,3.20
2022-10-09T14:37:42.466Z,2.15
2022-10-09T14:40:11.496Z,2.28
2022-10-09T14:42:39.755Z,2.30
2022-10-09T14:45:10.564Z,1.70
2022-10-09T14:47:38.380Z,1.52
2022-10-09T14:50:06.919Z,1.65
2022-10-09T14:52:34.769Z,1.63
2022-10-09T14:55:02.745Z,1.80
2022-10-09T14:57:35.152Z,1.85
2022-10-09T15:00:05.005Z,1.80
2022-10-09T15:02:34.328Z,1.58
2022-10-09T15:05:02.226Z,1.70
2022-10-09T15:07:31.504Z,1.58
2022-10-09T15:09:59.472Z,1.60
2022-10-09T15:12:27.216Z,1.70
2022-10-09T15:14:55.010Z,1.67
2022-10-09T15:17:22.709Z,1.92
2022-10-09T15:19:55.370Z,1.45
2022-10-09T15:22:23.320Z,1.70
2022-10-09T15:24:58.227Z,1.70
2022-10-09T15:27:26.200Z,1.70
2022-10-09T15:29:54.236Z,1.88
2022-10-09T15:32:22.127Z,1.70
2022-10-09T15:34:51.294Z,1.73
2022-10-09T15:37:19.097Z,1.83
2022-10-09T15:39:46.929Z,1.73
2022-10-09T15:42:14.723Z,1.67
2022-10-09T15:44:49.680Z,1.60
2022-10-09T15:47:27.169Z,1.90
2022-10-09T15:50:14.823Z,2.00
2022-10-09T15:52:42.542Z,1.88
2022-10-09T15:55:10.469Z,1.80
2022-10-09T15:57:38.200Z,1.80
2022-10-09T16:00:07.235Z,1.90
2022-10-09T16:02:34.954Z,11.23
2022-10-09T16:05:02.770Z,16.55
2022-10-09T16:07:32.052Z,4.38
2022-10-09T16:09:59.956Z,4.82
2022-10-09T16:12:27.890Z,2.80
2022-10-09T16:14:55.737Z,2.50
2022-10-09T16:17:28.701Z,1.98
2022-10-09T16:19:59.082Z,2.40
2022-10-09T16:22:27.115Z,5.93
2022-10-09T16:24:56.299Z,6.50
2022-10-09T16:27:24.016Z,4.43
2022-10-09T16:29:52.195Z,8.75
2022-10-09T16:32:23.379Z,4.70
2022-10-09T16:34:57.122Z,11.38
2022-10-09T16:37:29.603Z,6.15
2022-10-09T16:42:33.899Z,14.00
2022-10-09T16:45:04.545Z,12.40
2022-10-09T16:47:37.360Z,6.60
2022-10-09T16:50:49.318Z,3.92
2022-10-09T16:53:23.984Z,13.50
2022-10-09T16:55:54.973Z,6.75
2022-10-09T16:58:27.128Z,11.43
2022-10-09T17:01:03.942Z,8.35
2022-10-09T17:03:35.603Z,3.20
2022-10-09T17:06:08.287Z,5.32
2022-10-09T17:08:36.001Z,6.22
2022-10-09T17:11:07.271Z,2.38
2022-10-09T17:13:35.161Z,4.70
2022-10-09T17:16:13.280Z,3.88
2022-10-09T17:18:45.990Z,3.25
2022-10-09T17:21:14.470Z,3.20
2022-10-09T17:23:42.515Z,2.70
2022-10-09T17:26:18.516Z,3.40
2022-10-09T17:28:49.504Z,2.67
2022-10-09T17:31:19.475Z,2.72
2022-10-09T17:33:49.509Z,3.20
2022-10-09T17:36:20.331Z,2.60
2022-10-09T17:38:49.967Z,3.03
2022-10-09T17:41:21.339Z,3.10
2022-10-09T17:43:49.183Z,7.15
2022-10-09T17:46:22.975Z,4.80
2022-10-09T17:48:54.664Z,4.03
2022-10-09T17:51:26.967Z,5.22
2022-10-09T17:54:03.315Z,26.13
2022-10-09T17:56:34.858Z,32.72
2022-10-09T17:59:03.753Z,25.38
2022-10-09T18:01:32.400Z,13.38
2022-10-09T18:04:00.727Z,15.07
2022-10-09T18:06:34.055Z,7.68
2022-10-09T18:09:40.390Z,7.10
2022-10-09T18:12:09.683Z,7.55
2022-10-09T18:14:40.670Z,6.45
2022-10-09T18:17:16.114Z,7.03
2022-10-09T18:19:48.988Z,6.75
2022-10-09T18:22:16.861Z,7.72
2022-10-09T18:24:44.879Z,7.28
2022-10-09T18:27:14.003Z,8.55
2022-10-09T18:29:41.829Z,13.52
2022-10-09T18:32:14.006Z,10.30
2022-10-09T18:34:46.227Z,15.38
2022-10-09T18:39:43.083Z,6.85
2022-10-09T18:42:10.765Z,6.45
2022-10-09T18:44:41.606Z,6.25
2022-10-09T18:47:14.443Z,6.68
2022-10-09T18:49:45.355Z,6.50
2022-10-09T18:52:14.164Z,5.82
2022-10-09T18:54:43.457Z,5.93
2022-10-09T18:57:11.455Z,5.60
2022-10-09T18:59:41.129Z,5.70
2022-10-09T19:02:09.934Z,5.45
2022-10-09T19:04:37.710Z,5.25
2022-10-09T19:07:10.272Z,4.95
2022-10-09T19:12:12.998Z,4.65
2022-10-09T19:14:42.127Z,4.90
2022-10-09T19:17:10.033Z,5.35
2022-10-09T19:19:37.941Z,6.47
2022-10-09T19:22:06.047Z,6.43
2022-10-09T19:24:34.480Z,9.18
2022-10-09T19:27:03.455Z,13.35
2022-10-09T19:29:31.303Z,8.52
2022-10-09T19:32:00.422Z,7.72
2022-10-09T19:34:28.520Z,8.93
2022-10-09T19:36:56.290Z,5.45
2022-10-09T19:39:24.151Z,5.50
2022-10-09T19:41:52.168Z,30.13
2022-10-09T19:44:21.064Z,19.90
2022-10-09T19:46:48.925Z,14.35
2022-10-09T19:49:18.106Z,6.93
2022-10-09T19:51:46.415Z,6.82
2022-10-09T19:54:14.366Z,5.75
2022-10-09T19:56:42.097Z,6.03
2022-10-09T19:59:10.212Z,6.03
2022-10-09T20:01:40.327Z,6.75
2022-10-09T20:04:11.588Z,6.00
2022-10-09T20:06:42.412Z,4.97
2022-10-09T20:09:11.923Z,5.80
2022-10-09T20:11:39.736Z,5.60
2022-10-09T20:14:07.718Z,4.70
2022-10-09T20:16:35.575Z,5.38
2022-10-09T20:19:04.161Z,5.53
2022-10-09T20:21:33.537Z,5.25
2022-10-09T20:24:02.855Z,5.72
2022-10-09T20:26:33.188Z,5.63
2022-10-09T20:29:02.141Z,5.63
2022-10-09T20:31:30.456Z,5.30
2022-10-09T20:33:59.520Z,6.05
2022-10-09T20:36:29.944Z,6.40
2022-10-09T20:38:58.865Z,6.50
2022-10-09T20:41:29.149Z,6.55
2022-10-09T20:43:58.659Z,6.82
2022-10-09T20:46:28.035Z,6.97
2022-10-09T20:48:56.176Z,7.13
2022-10-09T20:51:24.359Z,7.05
2022-10-09T20:53:52.851Z,6.80
2022-10-09T20:56:21.683Z,6.70
2022-10-09T20:58:50.945Z,6.25
2022-10-09T21:01:19.101Z,6.22
2022-10-09T21:03:47.194Z,6.68
2022-10-09T21:06:18.476Z,7.05
2022-10-09T21:08:46.512Z,8.10
2022-10-09T21:11:17.151Z,7.40
2022-10-09T21:13:45.813Z,6.78
2022-10-09T21:16:17.387Z,7.97
2022-10-09T21:18:45.165Z,8.03
2022-10-09T21:21:15.350Z,7.82
2022-10-09T21:23:44.176Z,8.50
2022-10-09T21:26:14.076Z,8.70
2022-10-09T21:28:42.301Z,8.30
2022-10-09T21:31:11.161Z,9.00
2022-10-09T21:33:43.632Z,10.80
2022-10-09T21:38:40.154Z,7.75
2022-10-09T21:41:07.934Z,7.95
2022-10-09T21:43:35.676Z,7.25
2022-10-09T21:46:03.522Z,7.30
2022-10-09T21:48:31.762Z,6.47
2022-10-09T21:51:01.022Z,6.70
2022-10-09T21:53:28.727Z,6.50
2022-10-09T21:55:56.470Z,7.18
2022-10-09T21:58:24.529Z,6.63
2022-10-09T22:00:57.015Z,6.95
2022-10-09T22:05:53.155Z,6.97
2022-10-09T22:08:22.803Z,6.63
2022-10-09T22:10:50.645Z,6.35
2022-10-09T22:13:19.761Z,6.70
2022-10-09T22:15:50.909Z,6.40
2022-10-09T22:18:19.264Z,6.13
2022-10-09T22:20:50.700Z,6.28
2022-10-09T22:23:20.598Z,6.60
2022-10-09T22:25:58.794Z,6.90
2022-10-09T22:28:26.720Z,6.55
2022-10-09T22:31:06.174Z,6.57
2022-10-09T22:33:34.793Z,6.30
2022-10-09T22:36:07.918Z,6.72
2022-10-09T22:38:36.229Z,6.38
2022-10-09T22:41:08.670Z,6.30
2022-10-09T22:43:37.102Z,6.18
2022-10-09T22:46:12.214Z,6.38
2022-10-09T22:48:40.624Z,6.13
2022-10-09T22:51:10.739Z,5.60
2022-10-09T22:53:41.580Z,5.88
2022-10-09T22:56:14.210Z,5.25
2022-10-09T22:58:42.057Z,5.50
2022-10-09T23:01:13.040Z,5.30
2022-10-09T23:03:41.186Z,5.68
2022-10-09T23:06:11.138Z,5.80
2022-10-09T23:08:39.844Z,5.65
2022-10-09T23:11:07.836Z,5.05
2022-10-09T23:13:37.118Z,5.00
2022-10-09T23:16:06.709Z,5.22
2022-10-09T23:18:36.763Z,5.30
2022-10-09T23:21:05.388Z,5.00
2022-10-09T23:23:34.157Z,4.85
2022-10-09T23:26:05.193Z,4.80
2022-10-09T23:28:34.266Z,4.45
2022-10-09T23:31:04.771Z,4.35
2022-10-09T23:33:33.157Z,4.35
2022-10-09T23:36:03.143Z,4.68
2022-10-09T23:38:30.872Z,4.43
2022-10-09T23:40:58.848Z,4.22
2022-10-09T23:43:26.859Z,4.15
2022-10-09T23:45:56.700Z,4.40
2022-10-09T23:48:26.257Z,4.40
2022-10-09T23:50:55.236Z,4.72
2022-10-09T23:53:24.467Z,4.30
2022-10-09T23:55:52.758Z,4.53
2022-10-09T23:58:21.138Z,4.45
